Algoma, WV

8:23 AM EDT on May 22, 2015 (GMT -0400)
Raleigh County Memorial | | Change Station
CLOSE
Current Station
Airport
Location: Beckley,
Elevation: 2513 ft
Nearby Weather Stations

Elev 2513 ft 37.79 °N, 81.12 °W | Updated 9 minutes ago

Overcast
Overcast
43 °F
Feels Like 40 °F
N
6
Wind Variable Wind from WSW

Today
High -- | Low -- °F
--% Chance of Precip.
Yesterday
High -- | Low -- °F
Precip. -- in
6:11 AM 8:33 PM
Waxing Crescent, 21% visible
Pressure 30.23 in
Visibility 2.5 miles
Clouds Overcast 200 ft
Windchill 40 °F
Dew Point 41 °F
Humidity 93%
Rainfall 0.00 in
Snow Depth Not available.
UV 1 out of 12
Pollen 7.60 out of 12
Air Quality Not available.
Flu Activity Sporadic
SPECI KBKW 221214Z AUTO 25005KT 2 1/2SM BR OVC002 06/05 A3023 RMK AO2 T00610050

More Conditions Fewer Conditions

Pressure 30.23 in
Visibility 2.5 miles
Clouds Overcast 200 ft
Windchill 40 °F
Dew Point 41 °F
Humidity 93%
Rainfall 0.00 in
Snow Depth Not available.
UV 1 out of 12
Pollen 7.60 out of 12
Air Quality Not available.
Flu Activity Sporadic
SPECI KBKW 221214Z AUTO 25005KT 2 1/2SM BR OVC002 06/05 A3023 RMK AO2 T00610050

More Conditions Fewer Conditions

10-Day Weather Forecast

Almanac

Astronomy

May. 22, 2015 Rise Set
Actual Time
Civil Twilight
Nautical Twilight
Astronomical Twilight
Moon
Length of Visible Light
Length of Day
Tomorrow will be .
, % of the Moon is Illuminated

Today's Extremes

State Highs State Lows

Community

WunderPhotos

Upload Photos

1,823,208 photos uploaded!

WunderBlogs® & News

Nearby

Air Quality

  Air Quality AQ Index Pollutant
Not available.

Snow Depth

Station Depth Elevation

Earthquake Activity

City Distance Mag. Time & Date
Minimum magnitude displayed is 2.5.

Coastal Water Temperatures

Place Temperature

Stations

Nearby Weather Stations

Station Location Temp. Windchill Dew Point Humidity Wind Precip. Elev Updated Type